sensor_id;sensor_type;location;lat;lon;timestamp;temperature;humidity
58517;DHT22;44308;50.810;0.284;2023-04-22T00:02:07;6.60;99.90
58517;DHT22;44308;50.810;0.284;2023-04-22T00:04:33;6.60;99.90
58517;DHT22;44308;50.810;0.284;2023-04-22T00:06:59;6.60;99.90
58517;DHT22;44308;50.810;0.284;2023-04-22T00:09:24;6.60;99.90
58517;DHT22;44308;50.810;0.284;2023-04-22T00:11:51;6.60;99.90
58517;DHT22;44308;50.810;0.284;2023-04-22T00:14:17;6.60;99.90
58517;DHT22;44308;50.810;0.284;2023-04-22T00:16:42;6.60;99.90
58517;DHT22;44308;50.810;0.284;2023-04-22T00:19:08;6.60;99.90
58517;DHT22;44308;50.810;0.284;2023-04-22T00:21:34;6.60;99.90
58517;DHT22;44308;50.810;0.284;2023-04-22T00:24:20;6.60;99.90
58517;DHT22;44308;50.810;0.284;2023-04-22T00:26:45;6.60;99.90
58517;DHT22;44308;50.810;0.284;2023-04-22T00:29:11;6.60;99.90
58517;DHT22;44308;50.810;0.284;2023-04-22T00:31:37;6.60;99.90
58517;DHT22;44308;50.810;0.284;2023-04-22T00:34:08;6.60;99.90
58517;DHT22;44308;50.810;0.284;2023-04-22T00:36:33;6.60;99.90
58517;DHT22;44308;50.810;0.284;2023-04-22T00:38:59;6.50;99.90
58517;DHT22;44308;50.810;0.284;2023-04-22T00:41:26;6.60;99.90
58517;DHT22;44308;50.810;0.284;2023-04-22T00:43:53;6.60;99.90
58517;DHT22;44308;50.810;0.284;2023-04-22T00:46:19;6.60;99.90
58517;DHT22;44308;50.810;0.284;2023-04-22T00:48:45;6.60;99.90
58517;DHT22;44308;50.810;0.284;2023-04-22T00:51:11;6.60;99.90
58517;DHT22;44308;50.810;0.284;2023-04-22T00:56:40;6.60;99.90
58517;DHT22;44308;50.810;0.284;2023-04-22T00:59:08;6.60;99.90
58517;DHT22;44308;50.810;0.284;2023-04-22T01:01:34;6.60;99.90
58517;DHT22;44308;50.810;0.284;2023-04-22T01:04:02;6.60;99.90
58517;DHT22;44308;50.810;0.284;2023-04-22T01:06:29;6.60;99.90
58517;DHT22;44308;50.810;0.284;2023-04-22T01:08:57;6.60;99.90
58517;DHT22;44308;50.810;0.284;2023-04-22T01:11:23;6.70;99.90
58517;DHT22;44308;50.810;0.284;2023-04-22T01:16:37;6.80;99.90
58517;DHT22;44308;50.810;0.284;2023-04-22T01:19:04;6.70;99.90
58517;DHT22;44308;50.810;0.284;2023-04-22T01:21:31;6.80;99.90
58517;DHT22;44308;50.810;0.284;2023-04-22T01:27:40;6.80;99.90
58517;DHT22;44308;50.810;0.284;2023-04-22T01:33:54;6.80;99.90
58517;DHT22;44308;50.810;0.284;2023-04-22T01:36:19;6.80;99.90
58517;DHT22;44308;50.810;0.284;2023-04-22T01:38:45;6.80;99.90
58517;DHT22;44308;50.810;0.284;2023-04-22T01:41:12;6.80;99.90
58517;DHT22;44308;50.810;0.284;2023-04-22T01:43:38;6.80;99.90
58517;DHT22;44308;50.810;0.284;2023-04-22T01:46:05;6.80;99.90
58517;DHT22;44308;50.810;0.284;2023-04-22T01:48:31;6.70;99.90
58517;DHT22;44308;50.810;0.284;2023-04-22T01:50:57;6.80;99.90
58517;DHT22;44308;50.810;0.284;2023-04-22T01:53:26;6.70;99.90
58517;DHT22;44308;50.810;0.284;2023-04-22T01:55:52;6.70;99.90
58517;DHT22;44308;50.810;0.284;2023-04-22T01:58:17;6.60;99.90
58517;DHT22;44308;50.810;0.284;2023-04-22T02:00:43;6.60;99.90
58517;DHT22;44308;50.810;0.284;2023-04-22T02:03:09;6.60;99.90
58517;DHT22;44308;50.810;0.284;2023-04-22T02:05:36;6.60;99.90
58517;DHT22;44308;50.810;0.284;2023-04-22T02:08:02;6.50;99.90
58517;DHT22;44308;50.810;0.284;2023-04-22T02:10:29;6.40;99.90
58517;DHT22;44308;50.810;0.284;2023-04-22T02:12:55;6.30;99.90
58517;DHT22;44308;50.810;0.284;2023-04-22T02:15:21;6.30;99.90
58517;DHT22;44308;50.810;0.284;2023-04-22T02:17:47;6.20;99.90
58517;DHT22;44308;50.810;0.284;2023-04-22T02:20:13;6.10;99.90
58517;DHT22;44308;50.810;0.284;2023-04-22T02:22:39;6.00;99.90
58517;DHT22;44308;50.810;0.284;2023-04-22T02:25:06;5.90;99.90
58517;DHT22;44308;50.810;0.284;2023-04-22T02:27:32;5.90;99.90
58517;DHT22;44308;50.810;0.284;2023-04-22T02:29:58;5.80;99.90
58517;DHT22;44308;50.810;0.284;2023-04-22T02:35:13;5.60;99.90
58517;DHT22;44308;50.810;0.284;2023-04-22T02:37:39;5.60;99.90
58517;DHT22;44308;50.810;0.284;2023-04-22T02:40:05;5.60;99.90
58517;DHT22;44308;50.810;0.284;2023-04-22T02:42:35;5.60;99.90
58517;DHT22;44308;50.810;0.284;2023-04-22T02:45:01;5.60;99.90
58517;DHT22;44308;50.810;0.284;2023-04-22T02:47:27;5.60;99.90
58517;DHT22;44308;50.810;0.284;2023-04-22T02:49:52;5.60;99.90
58517;DHT22;44308;50.810;0.284;2023-04-22T02:52:18;5.60;99.90
58517;DHT22;44308;50.810;0.284;2023-04-22T02:54:44;5.60;99.90
58517;DHT22;44308;50.810;0.284;2023-04-22T02:57:09;5.60;99.90
58517;DHT22;44308;50.810;0.284;2023-04-22T02:59:35;5.60;99.90
58517;DHT22;44308;50.810;0.284;2023-04-22T03:02:01;5.50;99.90
58517;DHT22;44308;50.810;0.284;2023-04-22T03:04:27;5.50;99.90
58517;DHT22;44308;50.810;0.284;2023-04-22T03:06:52;5.50;99.90
58517;DHT22;44308;50.810;0.284;2023-04-22T03:09:18;5.50;99.90
58517;DHT22;44308;50.810;0.284;2023-04-22T03:11:44;5.60;99.90
58517;DHT22;44308;50.810;0.284;2023-04-22T03:14:29;5.60;99.90
58517;DHT22;44308;50.810;0.284;2023-04-22T03:16:55;5.60;99.90
58517;DHT22;44308;50.810;0.284;2023-04-22T03:19:21;5.70;99.90
58517;DHT22;44308;50.810;0.284;2023-04-22T03:21:47;5.80;99.90
58517;DHT22;44308;50.810;0.284;2023-04-22T03:24:31;5.80;99.90
58517;DHT22;44308;50.810;0.284;2023-04-22T03:26:57;5.80;99.90
58517;DHT22;44308;50.810;0.284;2023-04-22T03:29:23;5.90;99.90
58517;DHT22;44308;50.810;0.284;2023-04-22T03:31:48;5.80;99.90
58517;DHT22;44308;50.810;0.284;2023-04-22T03:34:15;5.90;99.90
58517;DHT22;44308;50.810;0.284;2023-04-22T03:36:41;5.90;99.90
58517;DHT22;44308;50.810;0.284;2023-04-22T03:39:07;6.00;99.90
58517;DHT22;44308;50.810;0.284;2023-04-22T03:41:33;5.90;99.90
58517;DHT22;44308;50.810;0.284;2023-04-22T03:47:03;6.00;99.90
58517;DHT22;44308;50.810;0.284;2023-04-22T03:49:28;6.00;99.90
58517;DHT22;44308;50.810;0.284;2023-04-22T03:51:54;6.10;99.90
58517;DHT22;44308;50.810;0.284;2023-04-22T03:54:20;6.10;99.90
58517;DHT22;44308;50.810;0.284;2023-04-22T03:56:46;6.20;99.90
58517;DHT22;44308;50.810;0.284;2023-04-22T03:59:11;6.10;99.90
58517;DHT22;44308;50.810;0.284;2023-04-22T04:01:37;6.10;99.90
58517;DHT22;44308;50.810;0.284;2023-04-22T04:04:05;6.10;99.90
58517;DHT22;44308;50.810;0.284;2023-04-22T04:06:31;6.10;99.90
58517;DHT22;44308;50.810;0.284;2023-04-22T04:08:57;6.10;99.90
58517;DHT22;44308;50.810;0.284;2023-04-22T04:11:23;6.20;99.90
58517;DHT22;44308;50.810;0.284;2023-04-22T04:13:51;6.20;99.90
58517;DHT22;44308;50.810;0.284;2023-04-22T04:16:17;6.20;99.90
58517;DHT22;44308;50.810;0.284;2023-04-22T04:18:42;6.20;99.90
58517;DHT22;44308;50.810;0.284;2023-04-22T04:21:08;6.20;99.90
58517;DHT22;44308;50.810;0.284;2023-04-22T04:23:54;6.20;99.90
58517;DHT22;44308;50.810;0.284;2023-04-22T04:26:20;6.30;99.90
58517;DHT22;44308;50.810;0.284;2023-04-22T04:28:46;6.30;99.90
58517;DHT22;44308;50.810;0.284;2023-04-22T04:31:13;6.30;99.90
58517;DHT22;44308;50.810;0.284;2023-04-22T04:33:59;6.30;99.90
58517;DHT22;44308;50.810;0.284;2023-04-22T04:36:24;6.30;99.90
58517;DHT22;44308;50.810;0.284;2023-04-22T04:38:54;6.40;99.90
58517;DHT22;44308;50.810;0.284;2023-04-22T04:41:20;6.40;99.90
58517;DHT22;44308;50.810;0.284;2023-04-22T04:43:46;6.40;99.90
58517;DHT22;44308;50.810;0.284;2023-04-22T04:46:13;6.50;99.90
58517;DHT22;44308;50.810;0.284;2023-04-22T04:48:42;6.50;99.90
58517;DHT22;44308;50.810;0.284;2023-04-22T04:51:10;6.40;99.90
58517;DHT22;44308;50.810;0.284;2023-04-22T04:53:56;6.50;99.90
58517;DHT22;44308;50.810;0.284;2023-04-22T04:56:22;6.50;99.90
58517;DHT22;44308;50.810;0.284;2023-04-22T04:58:48;6.50;99.90
58517;DHT22;44308;50.810;0.284;2023-04-22T05:01:14;6.40;99.90
58517;DHT22;44308;50.810;0.284;2023-04-22T05:03:42;6.50;99.90
58517;DHT22;44308;50.810;0.284;2023-04-22T05:06:08;6.40;99.90
58517;DHT22;44308;50.810;0.284;2023-04-22T05:08:34;6.50;99.90
58517;DHT22;44308;50.810;0.284;2023-04-22T05:11:00;6.40;99.90
58517;DHT22;44308;50.810;0.284;2023-04-22T05:13:30;6.40;99.90
58517;DHT22;44308;50.810;0.284;2023-04-22T05:15:56;6.40;99.90
58517;DHT22;44308;50.810;0.284;2023-04-22T05:18:21;6.50;99.90
58517;DHT22;44308;50.810;0.284;2023-04-22T05:20:47;6.50;99.90
58517;DHT22;44308;50.810;0.284;2023-04-22T05:23:32;6.50;99.90
58517;DHT22;44308;50.810;0.284;2023-04-22T05:25:58;6.50;99.90
58517;DHT22;44308;50.810;0.284;2023-04-22T05:28:23;6.50;99.90
58517;DHT22;44308;50.810;0.284;2023-04-22T05:30:49;6.50;99.90
58517;DHT22;44308;50.810;0.284;2023-04-22T05:33:36;6.50;99.90
58517;DHT22;44308;50.810;0.284;2023-04-22T05:36:02;6.50;99.90
58517;DHT22;44308;50.810;0.284;2023-04-22T05:38:28;6.60;99.90
58517;DHT22;44308;50.810;0.284;2023-04-22T05:40:53;6.60;99.90
58517;DHT22;44308;50.810;0.284;2023-04-22T05:43:21;6.70;99.90
58517;DHT22;44308;50.810;0.284;2023-04-22T05:45:47;6.70;99.90
58517;DHT22;44308;50.810;0.284;2023-04-22T05:48:12;6.80;99.90
58517;DHT22;44308;50.810;0.284;2023-04-22T05:50:38;6.80;99.90
58517;DHT22;44308;50.810;0.284;2023-04-22T05:53:05;6.80;99.90
58517;DHT22;44308;50.810;0.284;2023-04-22T05:55:30;6.90;99.90
58517;DHT22;44308;50.810;0.284;2023-04-22T05:57:56;7.00;99.90
58517;DHT22;44308;50.810;0.284;2023-04-22T06:00:22;7.00;99.90
58517;DHT22;44308;50.810;0.284;2023-04-22T06:02:48;7.10;99.90
58517;DHT22;44308;50.810;0.284;2023-04-22T06:05:13;7.10;99.90
58517;DHT22;44308;50.810;0.284;2023-04-22T06:07:39;7.20;99.90
58517;DHT22;44308;50.810;0.284;2023-04-22T06:10:05;7.20;99.90
58517;DHT22;44308;50.810;0.284;2023-04-22T06:12:35;7.30;99.90
58517;DHT22;44308;50.810;0.284;2023-04-22T06:15:01;7.40;99.90
58517;DHT22;44308;50.810;0.284;2023-04-22T06:17:28;7.50;99.90
58517;DHT22;44308;50.810;0.284;2023-04-22T06:19:53;7.60;99.90
58517;DHT22;44308;50.810;0.284;2023-04-22T06:22:21;7.70;99.90
58517;DHT22;44308;50.810;0.284;2023-04-22T06:24:47;7.80;99.90
58517;DHT22;44308;50.810;0.284;2023-04-22T06:27:13;7.90;99.90
58517;DHT22;44308;50.810;0.284;2023-04-22T06:29:38;7.90;99.90
58517;DHT22;44308;50.810;0.284;2023-04-22T06:32:04;7.90;99.90
58517;DHT22;44308;50.810;0.284;2023-04-22T06:34:29;8.00;99.90
58517;DHT22;44308;50.810;0.284;2023-04-22T06:36:58;8.00;99.90
58517;DHT22;44308;50.810;0.284;2023-04-22T06:39:24;8.00;99.90
58517;DHT22;44308;50.810;0.284;2023-04-22T06:41:52;8.00;99.90
58517;DHT22;44308;50.810;0.284;2023-04-22T06:44:18;8.00;99.90
58517;DHT22;44308;50.810;0.284;2023-04-22T06:46:43;8.10;99.90
58517;DHT22;44308;50.810;0.284;2023-04-22T06:49:10;8.10;99.90
58517;DHT22;44308;50.810;0.284;2023-04-22T06:51:35;8.10;99.90
58517;DHT22;44308;50.810;0.284;2023-04-22T06:54:01;8.20;99.90
58517;DHT22;44308;50.810;0.284;2023-04-22T06:56:27;8.30;99.90
58517;DHT22;44308;50.810;0.284;2023-04-22T06:58:54;8.30;99.90
58517;DHT22;44308;50.810;0.284;2023-04-22T07:01:20;8.30;99.90
58517;DHT22;44308;50.810;0.284;2023-04-22T07:03:46;8.40;99.90
58517;DHT22;44308;50.810;0.284;2023-04-22T07:06:11;8.40;99.90
58517;DHT22;44308;50.810;0.284;2023-04-22T07:08:37;8.50;99.90
58517;DHT22;44308;50.810;0.284;2023-04-22T07:11:03;8.50;99.90
58517;DHT22;44308;50.810;0.284;2023-04-22T07:13:29;8.60;99.90
58517;DHT22;44308;50.810;0.284;2023-04-22T07:15:59;8.60;99.90
58517;DHT22;44308;50.810;0.284;2023-04-22T07:18:25;8.70;99.90
58517;DHT22;44308;50.810;0.284;2023-04-22T07:20:51;8.80;99.90
58517;DHT22;44308;50.810;0.284;2023-04-22T07:23:18;8.80;99.90
58517;DHT22;44308;50.810;0.284;2023-04-22T07:25:44;8.90;99.90
58517;DHT22;44308;50.810;0.284;2023-04-22T07:28:10;9.10;99.90
58517;DHT22;44308;50.810;0.284;2023-04-22T07:30:35;9.20;99.90
58517;DHT22;44308;50.810;0.284;2023-04-22T07:33:01;9.30;99.90
58517;DHT22;44308;50.810;0.284;2023-04-22T07:35:27;9.50;99.90
58517;DHT22;44308;50.810;0.284;2023-04-22T07:37:54;9.70;99.90
58517;DHT22;44308;50.810;0.284;2023-04-22T07:40:20;9.90;99.90
58517;DHT22;44308;50.810;0.284;2023-04-22T07:42:45;10.00;99.90
58517;DHT22;44308;50.810;0.284;2023-04-22T07:45:11;10.20;99.90
58517;DHT22;44308;50.810;0.284;2023-04-22T07:47:38;10.20;99.90
58517;DHT22;44308;50.810;0.284;2023-04-22T07:50:04;10.40;99.90
58517;DHT22;44308;50.810;0.284;2023-04-22T07:52:32;10.40;99.90
58517;DHT22;44308;50.810;0.284;2023-04-22T07:54:58;10.40;99.90
58517;DHT22;44308;50.810;0.284;2023-04-22T07:57:23;10.60;99.90
58517;DHT22;44308;50.810;0.284;2023-04-22T07:59:50;10.70;99.90
58517;DHT22;44308;50.810;0.284;2023-04-22T08:02:16;10.90;99.90
58517;DHT22;44308;50.810;0.284;2023-04-22T08:04:42;11.10;99.90
58517;DHT22;44308;50.810;0.284;2023-04-22T08:07:08;11.30;99.90
58517;DHT22;44308;50.810;0.284;2023-04-22T08:09:34;11.60;99.90
58517;DHT22;44308;50.810;0.284;2023-04-22T08:11:59;11.90;99.90
58517;DHT22;44308;50.810;0.284;2023-04-22T08:14:25;12.10;99.90
58517;DHT22;44308;50.810;0.284;2023-04-22T08:16:51;12.20;99.90
58517;DHT22;44308;50.810;0.284;2023-04-22T08:19:18;12.90;99.90
58517;DHT22;44308;50.810;0.284;2023-04-22T08:21:44;13.60;99.90
58517;DHT22;44308;50.810;0.284;2023-04-22T08:24:10;14.00;99.90
58517;DHT22;44308;50.810;0.284;2023-04-22T08:26:36;14.60;99.90
58517;DHT22;44308;50.810;0.284;2023-04-22T08:29:03;14.60;99.90
58517;DHT22;44308;50.810;0.284;2023-04-22T08:31:28;15.30;99.90
58517;DHT22;44308;50.810;0.284;2023-04-22T08:33:54;16.30;99.90
58517;DHT22;44308;50.810;0.284;2023-04-22T08:36:20;17.00;99.90
58517;DHT22;44308;50.810;0.284;2023-04-22T08:38:48;17.60;99.90
58517;DHT22;44308;50.810;0.284;2023-04-22T08:41:14;18.00;99.90
58517;DHT22;44308;50.810;0.284;2023-04-22T08:43:40;17.70;99.90
58517;DHT22;44308;50.810;0.284;2023-04-22T08:46:07;17.30;99.90
58517;DHT22;44308;50.810;0.284;2023-04-22T08:48:32;16.60;99.90
58517;DHT22;44308;50.810;0.284;2023-04-22T08:50:59;16.20;99.90
58517;DHT22;44308;50.810;0.284;2023-04-22T08:53:24;16.00;99.90
58517;DHT22;44308;50.810;0.284;2023-04-22T08:55:50;15.80;99.90
58517;DHT22;44308;50.810;0.284;2023-04-22T08:58:16;15.90;99.90
58517;DHT22;44308;50.810;0.284;2023-04-22T09:00:43;15.60;99.90
58517;DHT22;44308;50.810;0.284;2023-04-22T09:03:09;16.20;99.90
58517;DHT22;44308;50.810;0.284;2023-04-22T09:05:39;16.90;99.90
58517;DHT22;44308;50.810;0.284;2023-04-22T09:08:05;17.10;99.90
58517;DHT22;44308;50.810;0.284;2023-04-22T09:10:35;17.30;99.90
58517;DHT22;44308;50.810;0.284;2023-04-22T09:13:02;17.90;99.90
58517;DHT22;44308;50.810;0.284;2023-04-22T09:15:29;18.60;99.90
58517;DHT22;44308;50.810;0.284;2023-04-22T09:17:55;19.20;99.90
58517;DHT22;44308;50.810;0.284;2023-04-22T09:20:27;19.20;99.90
58517;DHT22;44308;50.810;0.284;2023-04-22T09:22:55;19.40;99.90
58517;DHT22;44308;50.810;0.284;2023-04-22T09:25:22;18.20;99.90
58517;DHT22;44308;50.810;0.284;2023-04-22T09:27:50;18.30;99.90
58517;DHT22;44308;50.810;0.284;2023-04-22T09:30:17;18.10;99.90
58517;DHT22;44308;50.810;0.284;2023-04-22T09:32:56;18.00;99.90
58517;DHT22;44308;50.810;0.284;2023-04-22T09:35:33;18.30;99.90
58517;DHT22;44308;50.810;0.284;2023-04-22T09:38:02;19.20;99.90
58517;DHT22;44308;50.810;0.284;2023-04-22T09:40:30;19.60;99.90
58517;DHT22;44308;50.810;0.284;2023-04-22T09:42:58;19.00;99.90
58517;DHT22;44308;50.810;0.284;2023-04-22T09:45:32;18.30;99.90
58517;DHT22;44308;50.810;0.284;2023-04-22T09:48:14;18.00;99.90
58517;DHT22;44308;50.810;0.284;2023-04-22T09:50:47;18.00;99.90
58517;DHT22;44308;50.810;0.284;2023-04-22T09:53:16;18.40;99.90
58517;DHT22;44308;50.810;0.284;2023-04-22T09:55:53;19.00;99.90
58517;DHT22;44308;50.810;0.284;2023-04-22T09:58:20;18.70;99.90
58517;DHT22;44308;50.810;0.284;2023-04-22T10:00:53;18.70;99.90
58517;DHT22;44308;50.810;0.284;2023-04-22T10:03:21;18.30;99.90
58517;DHT22;44308;50.810;0.284;2023-04-22T10:05:47;17.90;99.90
58517;DHT22;44308;50.810;0.284;2023-04-22T10:08:15;17.50;99.90
58517;DHT22;44308;50.810;0.284;2023-04-22T10:10:41;17.30;99.90
58517;DHT22;44308;50.810;0.284;2023-04-22T10:13:07;16.90;99.90
58517;DHT22;44308;50.810;0.284;2023-04-22T10:18:02;17.00;99.90
58517;DHT22;44308;50.810;0.284;2023-04-22T10:20:29;17.40;99.90
58517;DHT22;44308;50.810;0.284;2023-04-22T10:22:56;17.40;99.90
58517;DHT22;44308;50.810;0.284;2023-04-22T10:25:23;17.00;99.90
58517;DHT22;44308;50.810;0.284;2023-04-22T10:28:16;17.30;99.90
58517;DHT22;44308;50.810;0.284;2023-04-22T10:30:42;17.20;99.90
58517;DHT22;44308;50.810;0.284;2023-04-22T10:41:15;16.90;99.90
58517;DHT22;44308;50.810;0.284;2023-04-22T10:43:45;16.60;99.90
58517;DHT22;44308;50.810;0.284;2023-04-22T10:49:09;16.30;99.90
58517;DHT22;44308;50.810;0.284;2023-04-22T10:54:06;16.30;99.90
58517;DHT22;44308;50.810;0.284;2023-04-22T10:56:31;16.20;99.90
58517;DHT22;44308;50.810;0.284;2023-04-22T10:58:57;16.00;99.90
58517;DHT22;44308;50.810;0.284;2023-04-22T11:01:26;16.10;99.90
58517;DHT22;44308;50.810;0.284;2023-04-22T11:03:52;15.60;99.90
58517;DHT22;44308;50.810;0.284;2023-04-22T11:06:19;15.50;99.90
58517;DHT22;44308;50.810;0.284;2023-04-22T11:08:51;15.50;99.90
58517;DHT22;44308;50.810;0.284;2023-04-22T11:11:32;15.10;99.90
58517;DHT22;44308;50.810;0.284;2023-04-22T11:13:57;14.70;99.90
58517;DHT22;44308;50.810;0.284;2023-04-22T11:16:24;14.50;99.90
58517;DHT22;44308;50.810;0.284;2023-04-22T11:18:50;14.50;99.90
58517;DHT22;44308;50.810;0.284;2023-04-22T11:21:17;14.60;99.90
58517;DHT22;44308;50.810;0.284;2023-04-22T11:23:49;14.50;99.90
58517;DHT22;44308;50.810;0.284;2023-04-22T11:26:16;14.80;99.90
58517;DHT22;44308;50.810;0.284;2023-04-22T11:28:46;14.70;99.90
58517;DHT22;44308;50.810;0.284;2023-04-22T11:31:12;14.70;99.90
58517;DHT22;44308;50.810;0.284;2023-04-22T11:33:39;14.90;99.90
58517;DHT22;44308;50.810;0.284;2023-04-22T11:36:09;15.20;99.90
58517;DHT22;44308;50.810;0.284;2023-04-22T11:38:36;15.50;99.90
58517;DHT22;44308;50.810;0.284;2023-04-22T11:41:01;15.40;99.90
58517;DHT22;44308;50.810;0.284;2023-04-22T11:43:29;15.40;99.90
58517;DHT22;44308;50.810;0.284;2023-04-22T11:45:55;15.40;99.90
58517;DHT22;44308;50.810;0.284;2023-04-22T11:48:21;15.30;99.90
58517;DHT22;44308;50.810;0.284;2023-04-22T11:50:47;15.10;99.90
58517;DHT22;44308;50.810;0.284;2023-04-22T11:53:14;15.00;99.90
58517;DHT22;44308;50.810;0.284;2023-04-22T11:55:41;15.10;99.90
58517;DHT22;44308;50.810;0.284;2023-04-22T11:58:18;15.10;99.90
58517;DHT22;44308;50.810;0.284;2023-04-22T12:00:48;14.80;99.90
58517;DHT22;44308;50.810;0.284;2023-04-22T12:03:16;14.50;99.90
58517;DHT22;44308;50.810;0.284;2023-04-22T12:05:51;14.60;99.90
58517;DHT22;44308;50.810;0.284;2023-04-22T12:08:19;14.60;99.90
58517;DHT22;44308;50.810;0.284;2023-04-22T12:10:54;14.60;99.90
58517;DHT22;44308;50.810;0.284;2023-04-22T12:13:33;14.60;99.90
58517;DHT22;44308;50.810;0.284;2023-04-22T12:16:08;14.80;99.90
58517;DHT22;44308;50.810;0.284;2023-04-22T12:18:46;14.90;99.90
58517;DHT22;44308;50.810;0.284;2023-04-22T12:21:13;15.10;99.90
58517;DHT22;44308;50.810;0.284;2023-04-22T12:23:45;15.10;99.90
58517;DHT22;44308;50.810;0.284;2023-04-22T12:26:12;15.10;99.90
58517;DHT22;44308;50.810;0.284;2023-04-22T12:28:39;15.00;99.90
58517;DHT22;44308;50.810;0.284;2023-04-22T12:31:05;15.20;99.90
58517;DHT22;44308;50.810;0.284;2023-04-22T12:33:32;15.00;99.90
58517;DHT22;44308;50.810;0.284;2023-04-22T12:35:58;14.70;99.90
58517;DHT22;44308;50.810;0.284;2023-04-22T12:38:23;14.80;99.90
58517;DHT22;44308;50.810;0.284;2023-04-22T12:40:49;14.80;99.90
58517;DHT22;44308;50.810;0.284;2023-04-22T12:43:16;14.50;99.90
58517;DHT22;44308;50.810;0.284;2023-04-22T12:45:42;14.50;99.90
58517;DHT22;44308;50.810;0.284;2023-04-22T12:48:08;14.40;99.90
58517;DHT22;44308;50.810;0.284;2023-04-22T12:50:33;14.50;99.90
58517;DHT22;44308;50.810;0.284;2023-04-22T12:52:59;14.40;99.90
58517;DHT22;44308;50.810;0.284;2023-04-22T12:55:25;14.30;99.90
58517;DHT22;44308;50.810;0.284;2023-04-22T12:57:51;14.10;99.90
58517;DHT22;44308;50.810;0.284;2023-04-22T13:00:18;13.90;99.90
58517;DHT22;44308;50.810;0.284;2023-04-22T13:02:48;13.70;99.90
58517;DHT22;44308;50.810;0.284;2023-04-22T13:05:15;13.90;99.90
58517;DHT22;44308;50.810;0.284;2023-04-22T13:07:41;14.00;99.90
58517;DHT22;44308;50.810;0.284;2023-04-22T13:10:09;14.20;99.90
58517;DHT22;44308;50.810;0.284;2023-04-22T13:12:37;14.00;99.90
58517;DHT22;44308;50.810;0.284;2023-04-22T13:15:03;14.00;99.90
58517;DHT22;44308;50.810;0.284;2023-04-22T13:17:29;14.30;99.90
58517;DHT22;44308;50.810;0.284;2023-04-22T13:19:55;14.30;99.90
58517;DHT22;44308;50.810;0.284;2023-04-22T13:22:22;14.40;99.90
58517;DHT22;44308;50.810;0.284;2023-04-22T13:24:48;14.60;99.90
58517;DHT22;44308;50.810;0.284;2023-04-22T13:27:14;14.70;99.90
58517;DHT22;44308;50.810;0.284;2023-04-22T13:29:40;14.90;99.90
58517;DHT22;44308;50.810;0.284;2023-04-22T13:32:06;14.90;99.90
58517;DHT22;44308;50.810;0.284;2023-04-22T13:34:37;15.00;99.90
58517;DHT22;44308;50.810;0.284;2023-04-22T13:37:12;15.30;99.90
58517;DHT22;44308;50.810;0.284;2023-04-22T13:39:43;15.50;99.90
58517;DHT22;44308;50.810;0.284;2023-04-22T13:42:09;15.70;99.90
58517;DHT22;44308;50.810;0.284;2023-04-22T13:44:35;16.00;99.90
58517;DHT22;44308;50.810;0.284;2023-04-22T13:47:01;16.20;99.90
58517;DHT22;44308;50.810;0.284;2023-04-22T13:49:27;16.50;99.90
58517;DHT22;44308;50.810;0.284;2023-04-22T13:51:53;16.60;99.90
58517;DHT22;44308;50.810;0.284;2023-04-22T13:54:19;16.80;99.90
58517;DHT22;44308;50.810;0.284;2023-04-22T13:56:45;16.90;99.90
58517;DHT22;44308;50.810;0.284;2023-04-22T13:59:10;17.10;99.90
58517;DHT22;44308;50.810;0.284;2023-04-22T14:01:37;17.20;99.90
58517;DHT22;44308;50.810;0.284;2023-04-22T14:04:03;17.50;99.90
58517;DHT22;44308;50.810;0.284;2023-04-22T14:06:28;17.90;99.90
58517;DHT22;44308;50.810;0.284;2023-04-22T14:08:54;17.70;99.90
58517;DHT22;44308;50.810;0.284;2023-04-22T14:11:20;17.90;99.90
58517;DHT22;44308;50.810;0.284;2023-04-22T14:13:46;18.10;99.90
58517;DHT22;44308;50.810;0.284;2023-04-22T14:16:13;18.00;99.90
58517;DHT22;44308;50.810;0.284;2023-04-22T14:18:39;17.90;99.90
58517;DHT22;44308;50.810;0.284;2023-04-22T14:21:06;17.90;99.90
58517;DHT22;44308;50.810;0.284;2023-04-22T14:23:35;18.00;99.90
58517;DHT22;44308;50.810;0.284;2023-04-22T14:26:02;17.70;99.90
58517;DHT22;44308;50.810;0.284;2023-04-22T14:28:27;17.90;99.90
58517;DHT22;44308;50.810;0.284;2023-04-22T14:30:53;17.30;99.90
58517;DHT22;44308;50.810;0.284;2023-04-22T14:33:20;17.40;99.90
58517;DHT22;44308;50.810;0.284;2023-04-22T14:35:45;17.50;99.90
58517;DHT22;44308;50.810;0.284;2023-04-22T14:38:11;17.40;99.90
58517;DHT22;44308;50.810;0.284;2023-04-22T14:40:37;17.60;99.90
58517;DHT22;44308;50.810;0.284;2023-04-22T14:43:05;17.60;99.90
58517;DHT22;44308;50.810;0.284;2023-04-22T14:45:31;17.90;99.90
58517;DHT22;44308;50.810;0.284;2023-04-22T14:47:58;17.80;99.90
58517;DHT22;44308;50.810;0.284;2023-04-22T14:50:24;17.50;99.90
58517;DHT22;44308;50.810;0.284;2023-04-22T14:52:51;17.30;99.90
58517;DHT22;44308;50.810;0.284;2023-04-22T14:55:17;17.60;99.90
58517;DHT22;44308;50.810;0.284;2023-04-22T14:57:43;17.50;99.90
58517;DHT22;44308;50.810;0.284;2023-04-22T15:00:09;17.60;99.90
58517;DHT22;44308;50.810;0.284;2023-04-22T15:02:36;17.30;99.90
58517;DHT22;44308;50.810;0.284;2023-04-22T15:05:02;17.20;99.90
58517;DHT22;44308;50.810;0.284;2023-04-22T15:07:28;16.70;99.90
58517;DHT22;44308;50.810;0.284;2023-04-22T15:09:54;16.60;99.90
58517;DHT22;44308;50.810;0.284;2023-04-22T15:12:25;16.30;99.90
58517;DHT22;44308;50.810;0.284;2023-04-22T15:14:51;15.70;99.90
58517;DHT22;44308;50.810;0.284;2023-04-22T15:17:17;15.30;99.90
58517;DHT22;44308;50.810;0.284;2023-04-22T15:19:43;14.90;99.90
58517;DHT22;44308;50.810;0.284;2023-04-22T15:22:10;14.90;99.90
58517;DHT22;44308;50.810;0.284;2023-04-22T15:24:36;14.80;99.90
58517;DHT22;44308;50.810;0.284;2023-04-22T15:27:02;14.60;99.90
58517;DHT22;44308;50.810;0.284;2023-04-22T15:29:27;14.80;99.90
58517;DHT22;44308;50.810;0.284;2023-04-22T15:31:54;14.80;99.90
58517;DHT22;44308;50.810;0.284;2023-04-22T15:34:19;14.90;99.90
58517;DHT22;44308;50.810;0.284;2023-04-22T15:36:45;14.80;99.90
58517;DHT22;44308;50.810;0.284;2023-04-22T15:39:11;14.90;99.90
58517;DHT22;44308;50.810;0.284;2023-04-22T15:41:37;14.50;99.90
58517;DHT22;44308;50.810;0.284;2023-04-22T15:44:03;14.50;99.90
58517;DHT22;44308;50.810;0.284;2023-04-22T15:46:30;14.40;99.90
58517;DHT22;44308;50.810;0.284;2023-04-22T15:49:00;14.10;99.90
58517;DHT22;44308;50.810;0.284;2023-04-22T15:51:26;13.90;99.90
58517;DHT22;44308;50.810;0.284;2023-04-22T15:53:53;13.90;99.90
58517;DHT22;44308;50.810;0.284;2023-04-22T15:56:19;13.70;99.90
58517;DHT22;44308;50.810;0.284;2023-04-22T15:58:45;13.70;99.90
58517;DHT22;44308;50.810;0.284;2023-04-22T16:01:11;13.80;99.90
58517;DHT22;44308;50.810;0.284;2023-04-22T16:03:37;13.70;99.90
58517;DHT22;44308;50.810;0.284;2023-04-22T16:06:02;13.90;99.90
58517;DHT22;44308;50.810;0.284;2023-04-22T16:08:28;13.90;99.90
58517;DHT22;44308;50.810;0.284;2023-04-22T16:10:54;13.90;99.90
58517;DHT22;44308;50.810;0.284;2023-04-22T16:13:20;14.20;99.90